sensor_id;sensor_type;location;lat;lon;timestamp;pressure;altitude;pressure_sealevel;temperature
11792;BMP180;5953;52.372;9.918;2023-03-23T00:00:47;99676.00;;;17.60
11792;BMP180;5953;52.372;9.918;2023-03-23T00:03:15;99674.00;;;17.60
11792;BMP180;5953;52.372;9.918;2023-03-23T00:05:42;99668.00;;;17.80
11792;BMP180;5953;52.372;9.918;2023-03-23T00:08:15;99678.00;;;17.40
11792;BMP180;5953;52.372;9.918;2023-03-23T00:10:42;99672.00;;;17.40
11792;BMP180;5953;52.372;9.918;2023-03-23T00:13:09;99677.00;;;17.40
11792;BMP180;5953;52.372;9.918;2023-03-23T00:15:36;99662.00;;;17.00
11792;BMP180;5953;52.372;9.918;2023-03-23T00:18:06;99687.00;;;17.30
11792;BMP180;5953;52.372;9.918;2023-03-23T00:20:34;99673.00;;;17.20
11792;BMP180;5953;52.372;9.918;2023-03-23T00:23:07;99672.00;;;17.40
11792;BMP180;5953;52.372;9.918;2023-03-23T00:25:33;99673.00;;;17.20
11792;BMP180;5953;52.372;9.918;2023-03-23T00:28:00;99683.00;;;17.00
11792;BMP180;5953;52.372;9.918;2023-03-23T00:30:28;99666.00;;;17.00
11792;BMP180;5953;52.372;9.918;2023-03-23T00:32:55;99658.00;;;17.00
11792;BMP180;5953;52.372;9.918;2023-03-23T00:35:23;99662.00;;;16.70
11792;BMP180;5953;52.372;9.918;2023-03-23T00:37:51;99651.00;;;16.60
11792;BMP180;5953;52.372;9.918;2023-03-23T00:40:18;99650.00;;;16.60
11792;BMP180;5953;52.372;9.918;2023-03-23T00:42:45;99659.00;;;16.60
11792;BMP180;5953;52.372;9.918;2023-03-23T00:45:11;99661.00;;;16.60
11792;BMP180;5953;52.372;9.918;2023-03-23T00:47:38;99658.00;;;16.60
11792;BMP180;5953;52.372;9.918;2023-03-23T00:50:07;99651.00;;;16.60
11792;BMP180;5953;52.372;9.918;2023-03-23T00:52:34;99651.00;;;16.70
11792;BMP180;5953;52.372;9.918;2023-03-23T00:55:03;99644.00;;;16.50
11792;BMP180;5953;52.372;9.918;2023-03-23T00:57:30;99650.00;;;16.40
11792;BMP180;5953;52.372;9.918;2023-03-23T00:59:57;99649.00;;;16.50
11792;BMP180;5953;52.372;9.918;2023-03-23T01:02:24;99644.00;;;16.30
11792;BMP180;5953;52.372;9.918;2023-03-23T01:04:51;99649.00;;;16.40
11792;BMP180;5953;52.372;9.918;2023-03-23T01:07:18;99647.00;;;16.30
11792;BMP180;5953;52.372;9.918;2023-03-23T01:09:45;99642.00;;;16.20
11792;BMP180;5953;52.372;9.918;2023-03-23T01:12:15;99641.00;;;16.30
11792;BMP180;5953;52.372;9.918;2023-03-23T01:14:41;99627.00;;;16.20
11792;BMP180;5953;52.372;9.918;2023-03-23T01:17:08;99632.00;;;16.10
11792;BMP180;5953;52.372;9.918;2023-03-23T01:19:35;99644.00;;;16.10
11792;BMP180;5953;52.372;9.918;2023-03-23T01:22:02;99631.00;;;16.00
11792;BMP180;5953;52.372;9.918;2023-03-23T01:24:30;99625.00;;;16.10
11792;BMP180;5953;52.372;9.918;2023-03-23T01:26:57;99623.00;;;16.10
11792;BMP180;5953;52.372;9.918;2023-03-23T01:29:28;99617.00;;;15.90
11792;BMP180;5953;52.372;9.918;2023-03-23T01:31:55;99628.00;;;15.70
11792;BMP180;5953;52.372;9.918;2023-03-23T01:34:21;99603.00;;;16.10
11792;BMP180;5953;52.372;9.918;2023-03-23T01:36:48;99608.00;;;16.00
11792;BMP180;5953;52.372;9.918;2023-03-23T01:39:15;99600.00;;;16.30
11792;BMP180;5953;52.372;9.918;2023-03-23T01:41:41;99603.00;;;16.20
11792;BMP180;5953;52.372;9.918;2023-03-23T01:47:15;99595.00;;;16.50
11792;BMP180;5953;52.372;9.918;2023-03-23T01:49:45;99599.00;;;16.40
11792;BMP180;5953;52.372;9.918;2023-03-23T01:52:15;99598.00;;;16.20
11792;BMP180;5953;52.372;9.918;2023-03-23T01:54:43;99591.00;;;16.10
11792;BMP180;5953;52.372;9.918;2023-03-23T01:57:13;99593.00;;;15.80
11792;BMP180;5953;52.372;9.918;2023-03-23T01:59:42;99588.00;;;16.10
11792;BMP180;5953;52.372;9.918;2023-03-23T02:02:10;99598.00;;;16.30
11792;BMP180;5953;52.372;9.918;2023-03-23T02:04:39;99576.00;;;16.10
11792;BMP180;5953;52.372;9.918;2023-03-23T02:07:07;99594.00;;;16.00
11792;BMP180;5953;52.372;9.918;2023-03-23T02:09:34;99592.00;;;16.10
11792;BMP180;5953;52.372;9.918;2023-03-23T02:12:00;99586.00;;;16.20
11792;BMP180;5953;52.372;9.918;2023-03-23T02:14:28;99587.00;;;16.00
11792;BMP180;5953;52.372;9.918;2023-03-23T02:17:02;99587.00;;;15.90
11792;BMP180;5953;52.372;9.918;2023-03-23T02:19:45;99590.00;;;15.80
11792;BMP180;5953;52.372;9.918;2023-03-23T02:22:43;99595.00;;;15.90
11792;BMP180;5953;52.372;9.918;2023-03-23T02:25:33;99566.00;;;16.00
11792;BMP180;5953;52.372;9.918;2023-03-23T02:28:27;99573.00;;;16.00
11792;BMP180;5953;52.372;9.918;2023-03-23T02:31:09;99566.00;;;16.00
11792;BMP180;5953;52.372;9.918;2023-03-23T02:33:47;99571.00;;;15.80
11792;BMP180;5953;52.372;9.918;2023-03-23T02:36:21;99572.00;;;16.00
11792;BMP180;5953;52.372;9.918;2023-03-23T02:38:55;99554.00;;;16.00
11792;BMP180;5953;52.372;9.918;2023-03-23T02:41:28;99566.00;;;16.00
11792;BMP180;5953;52.372;9.918;2023-03-23T02:43:57;99566.00;;;16.10
11792;BMP180;5953;52.372;9.918;2023-03-23T02:46:25;99539.00;;;16.00
11792;BMP180;5953;52.372;9.918;2023-03-23T02:48:53;99547.00;;;15.90
11792;BMP180;5953;52.372;9.918;2023-03-23T02:51:22;99528.00;;;15.60
11792;BMP180;5953;52.372;9.918;2023-03-23T02:53:51;99539.00;;;15.40
11792;BMP180;5953;52.372;9.918;2023-03-23T02:56:20;99540.00;;;16.00
11792;BMP180;5953;52.372;9.918;2023-03-23T02:58:49;99549.00;;;15.90
11792;BMP180;5953;52.372;9.918;2023-03-23T03:01:48;99549.00;;;15.70
11792;BMP180;5953;52.372;9.918;2023-03-23T03:04:22;99554.00;;;15.90
11792;BMP180;5953;52.372;9.918;2023-03-23T03:06:58;99565.00;;;15.50
11792;BMP180;5953;52.372;9.918;2023-03-23T03:09:33;99533.00;;;15.80
11792;BMP180;5953;52.372;9.918;2023-03-23T03:12:07;99547.00;;;15.80
11792;BMP180;5953;52.372;9.918;2023-03-23T03:14:37;99521.00;;;15.50
11792;BMP180;5953;52.372;9.918;2023-03-23T03:17:09;99519.00;;;16.10
11792;BMP180;5953;52.372;9.918;2023-03-23T03:19:42;99512.00;;;15.80
11792;BMP180;5953;52.372;9.918;2023-03-23T03:22:10;99527.00;;;15.60
11792;BMP180;5953;52.372;9.918;2023-03-23T03:24:38;99530.00;;;15.90
11792;BMP180;5953;52.372;9.918;2023-03-23T03:27:11;99533.00;;;16.10
11792;BMP180;5953;52.372;9.918;2023-03-23T03:29:41;99542.00;;;16.20
11792;BMP180;5953;52.372;9.918;2023-03-23T03:32:12;99532.00;;;15.90
11792;BMP180;5953;52.372;9.918;2023-03-23T03:34:41;99544.00;;;15.80
11792;BMP180;5953;52.372;9.918;2023-03-23T03:37:08;99523.00;;;15.80
11792;BMP180;5953;52.372;9.918;2023-03-23T03:39:37;99539.00;;;15.80
11792;BMP180;5953;52.372;9.918;2023-03-23T03:42:05;99515.00;;;15.80
11792;BMP180;5953;52.372;9.918;2023-03-23T03:44:32;99531.00;;;15.50
11792;BMP180;5953;52.372;9.918;2023-03-23T03:46:59;99518.00;;;15.00
11792;BMP180;5953;52.372;9.918;2023-03-23T03:49:26;99516.00;;;15.50
11792;BMP180;5953;52.372;9.918;2023-03-23T03:51:54;99513.00;;;15.60
11792;BMP180;5953;52.372;9.918;2023-03-23T03:54:21;99502.00;;;15.50
11792;BMP180;5953;52.372;9.918;2023-03-23T03:56:48;99500.00;;;15.90
11792;BMP180;5953;52.372;9.918;2023-03-23T03:59:17;99515.00;;;15.60
11792;BMP180;5953;52.372;9.918;2023-03-23T04:01:44;99519.00;;;15.60
11792;BMP180;5953;52.372;9.918;2023-03-23T04:04:11;99518.00;;;15.60
11792;BMP180;5953;52.372;9.918;2023-03-23T04:06:37;99506.00;;;15.70
11792;BMP180;5953;52.372;9.918;2023-03-23T04:09:06;99496.00;;;15.80
11792;BMP180;5953;52.372;9.918;2023-03-23T04:11:33;99500.00;;;15.80
11792;BMP180;5953;52.372;9.918;2023-03-23T04:13:59;99499.00;;;15.30
11792;BMP180;5953;52.372;9.918;2023-03-23T04:16:26;99503.00;;;15.40
11792;BMP180;5953;52.372;9.918;2023-03-23T04:18:55;99515.00;;;15.40
11792;BMP180;5953;52.372;9.918;2023-03-23T04:21:22;99505.00;;;15.60
11792;BMP180;5953;52.372;9.918;2023-03-23T04:23:49;99498.00;;;15.20
11792;BMP180;5953;52.372;9.918;2023-03-23T04:26:17;99512.00;;;15.50
11792;BMP180;5953;52.372;9.918;2023-03-23T04:28:44;99514.00;;;15.70
11792;BMP180;5953;52.372;9.918;2023-03-23T04:31:10;99515.00;;;15.80
11792;BMP180;5953;52.372;9.918;2023-03-23T04:33:38;99510.00;;;15.70
11792;BMP180;5953;52.372;9.918;2023-03-23T04:36:06;99499.00;;;15.40
11792;BMP180;5953;52.372;9.918;2023-03-23T04:38:33;99488.00;;;15.40
11792;BMP180;5953;52.372;9.918;2023-03-23T04:41:00;99490.00;;;15.30
11792;BMP180;5953;52.372;9.918;2023-03-23T04:43:29;99489.00;;;15.70
11792;BMP180;5953;52.372;9.918;2023-03-23T04:45:59;99483.00;;;15.40
11792;BMP180;5953;52.372;9.918;2023-03-23T04:48:30;99485.00;;;15.80
11792;BMP180;5953;52.372;9.918;2023-03-23T04:50:58;99476.00;;;15.70
11792;BMP180;5953;52.372;9.918;2023-03-23T04:53:28;99477.00;;;15.30
11792;BMP180;5953;52.372;9.918;2023-03-23T04:55:55;99479.00;;;15.60
11792;BMP180;5953;52.372;9.918;2023-03-23T04:58:22;99495.00;;;15.30
11792;BMP180;5953;52.372;9.918;2023-03-23T05:00:51;99475.00;;;15.70
11792;BMP180;5953;52.372;9.918;2023-03-23T05:03:18;99475.00;;;15.50
11792;BMP180;5953;52.372;9.918;2023-03-23T05:05:46;99465.00;;;15.60
11792;BMP180;5953;52.372;9.918;2023-03-23T05:08:18;99458.00;;;15.50
11792;BMP180;5953;52.372;9.918;2023-03-23T05:10:50;99474.00;;;15.60
11792;BMP180;5953;52.372;9.918;2023-03-23T05:13:16;99478.00;;;15.70
11792;BMP180;5953;52.372;9.918;2023-03-23T05:15:43;99485.00;;;15.70
11792;BMP180;5953;52.372;9.918;2023-03-23T05:18:11;99489.00;;;15.50
11792;BMP180;5953;52.372;9.918;2023-03-23T05:20:38;99495.00;;;15.90
11792;BMP180;5953;52.372;9.918;2023-03-23T05:23:07;99490.00;;;15.50
11792;BMP180;5953;52.372;9.918;2023-03-23T05:25:34;99485.00;;;15.20
11792;BMP180;5953;52.372;9.918;2023-03-23T05:28:06;99496.00;;;15.50
11792;BMP180;5953;52.372;9.918;2023-03-23T05:30:36;99468.00;;;15.50
11792;BMP180;5953;52.372;9.918;2023-03-23T05:33:04;99476.00;;;15.40
11792;BMP180;5953;52.372;9.918;2023-03-23T05:35:32;99483.00;;;15.20
11792;BMP180;5953;52.372;9.918;2023-03-23T05:37:59;99498.00;;;15.10
11792;BMP180;5953;52.372;9.918;2023-03-23T05:40:27;99486.00;;;15.30
11792;BMP180;5953;52.372;9.918;2023-03-23T05:42:54;99450.00;;;15.50
11792;BMP180;5953;52.372;9.918;2023-03-23T05:45:22;99487.00;;;15.50
11792;BMP180;5953;52.372;9.918;2023-03-23T05:47:49;99479.00;;;15.40
11792;BMP180;5953;52.372;9.918;2023-03-23T05:50:16;99487.00;;;14.70
11792;BMP180;5953;52.372;9.918;2023-03-23T05:52:46;99478.00;;;14.60
11792;BMP180;5953;52.372;9.918;2023-03-23T05:55:12;99481.00;;;15.00
11792;BMP180;5953;52.372;9.918;2023-03-23T05:57:40;99489.00;;;15.20
11792;BMP180;5953;52.372;9.918;2023-03-23T06:00:09;99490.00;;;15.30
11792;BMP180;5953;52.372;9.918;2023-03-23T06:02:46;99499.00;;;15.30
11792;BMP180;5953;52.372;9.918;2023-03-23T06:05:13;99492.00;;;15.30
11792;BMP180;5953;52.372;9.918;2023-03-23T06:07:41;99484.00;;;15.30
11792;BMP180;5953;52.372;9.918;2023-03-23T06:10:10;99501.00;;;15.40
11792;BMP180;5953;52.372;9.918;2023-03-23T06:12:38;99499.00;;;15.40
11792;BMP180;5953;52.372;9.918;2023-03-23T06:15:06;99497.00;;;15.30
11792;BMP180;5953;52.372;9.918;2023-03-23T06:17:34;99489.00;;;15.40
11792;BMP180;5953;52.372;9.918;2023-03-23T06:20:02;99492.00;;;15.60
11792;BMP180;5953;52.372;9.918;2023-03-23T06:22:34;99491.00;;;15.60
11792;BMP180;5953;52.372;9.918;2023-03-23T06:25:01;99473.00;;;15.00
11792;BMP180;5953;52.372;9.918;2023-03-23T06:27:29;99486.00;;;15.50
11792;BMP180;5953;52.372;9.918;2023-03-23T06:29:56;99485.00;;;15.80
11792;BMP180;5953;52.372;9.918;2023-03-23T06:32:23;99494.00;;;15.40
11792;BMP180;5953;52.372;9.918;2023-03-23T06:34:51;99477.00;;;15.60
11792;BMP180;5953;52.372;9.918;2023-03-23T06:37:18;99487.00;;;15.70
11792;BMP180;5953;52.372;9.918;2023-03-23T06:39:45;99486.00;;;15.70
11792;BMP180;5953;52.372;9.918;2023-03-23T06:42:11;99494.00;;;15.20
11792;BMP180;5953;52.372;9.918;2023-03-23T06:44:40;99480.00;;;15.80
11792;BMP180;5953;52.372;9.918;2023-03-23T06:47:07;99482.00;;;15.60
11792;BMP180;5953;52.372;9.918;2023-03-23T06:49:36;99493.00;;;15.50
11792;BMP180;5953;52.372;9.918;2023-03-23T06:52:03;99470.00;;;15.40
11792;BMP180;5953;52.372;9.918;2023-03-23T06:54:31;99508.00;;;15.70
11792;BMP180;5953;52.372;9.918;2023-03-23T06:56:58;99514.00;;;15.50
11792;BMP180;5953;52.372;9.918;2023-03-23T06:59:25;99510.00;;;15.40
11792;BMP180;5953;52.372;9.918;2023-03-23T07:01:53;99518.00;;;15.50
11792;BMP180;5953;52.372;9.918;2023-03-23T07:04:20;99516.00;;;15.50
11792;BMP180;5953;52.372;9.918;2023-03-23T07:06:49;99506.00;;;15.80
11792;BMP180;5953;52.372;9.918;2023-03-23T07:09:16;99522.00;;;15.70
11792;BMP180;5953;52.372;9.918;2023-03-23T07:11:42;99498.00;;;15.90
11792;BMP180;5953;52.372;9.918;2023-03-23T07:14:09;99523.00;;;15.60
11792;BMP180;5953;52.372;9.918;2023-03-23T07:16:36;99522.00;;;15.80
11792;BMP180;5953;52.372;9.918;2023-03-23T07:19:05;99534.00;;;15.50
11792;BMP180;5953;52.372;9.918;2023-03-23T07:21:31;99526.00;;;15.80
11792;BMP180;5953;52.372;9.918;2023-03-23T07:23:58;99519.00;;;15.60
11792;BMP180;5953;52.372;9.918;2023-03-23T07:26:25;99527.00;;;16.00
11792;BMP180;5953;52.372;9.918;2023-03-23T07:28:52;99524.00;;;15.80
11792;BMP180;5953;52.372;9.918;2023-03-23T07:31:18;99531.00;;;15.90
11792;BMP180;5953;52.372;9.918;2023-03-23T07:33:45;99525.00;;;15.90
11792;BMP180;5953;52.372;9.918;2023-03-23T07:36:13;99520.00;;;16.00
11792;BMP180;5953;52.372;9.918;2023-03-23T07:38:40;99529.00;;;16.00
11792;BMP180;5953;52.372;9.918;2023-03-23T07:41:07;99528.00;;;16.00
11792;BMP180;5953;52.372;9.918;2023-03-23T07:43:34;99519.00;;;16.10
11792;BMP180;5953;52.372;9.918;2023-03-23T07:46:02;99531.00;;;16.10
11792;BMP180;5953;52.372;9.918;2023-03-23T07:48:28;99519.00;;;16.20
11792;BMP180;5953;52.372;9.918;2023-03-23T07:50:55;99521.00;;;16.10
11792;BMP180;5953;52.372;9.918;2023-03-23T07:53:23;99515.00;;;16.60
11792;BMP180;5953;52.372;9.918;2023-03-23T07:55:50;99510.00;;;16.50
11792;BMP180;5953;52.372;9.918;2023-03-23T07:58:17;99494.00;;;16.50
11792;BMP180;5953;52.372;9.918;2023-03-23T08:00:45;99503.00;;;16.60
11792;BMP180;5953;52.372;9.918;2023-03-23T08:03:13;99521.00;;;16.40
11792;BMP180;5953;52.372;9.918;2023-03-23T08:05:40;99512.00;;;16.90
11792;BMP180;5953;52.372;9.918;2023-03-23T08:08:08;99513.00;;;16.70
11792;BMP180;5953;52.372;9.918;2023-03-23T08:10:36;99516.00;;;17.10
11792;BMP180;5953;52.372;9.918;2023-03-23T08:13:03;99520.00;;;16.80
11792;BMP180;5953;52.372;9.918;2023-03-23T08:15:31;99512.00;;;16.80
11792;BMP180;5953;52.372;9.918;2023-03-23T08:17:59;99514.00;;;17.00
11792;BMP180;5953;52.372;9.918;2023-03-23T08:20:26;99526.00;;;16.80
11792;BMP180;5953;52.372;9.918;2023-03-23T08:22:54;99518.00;;;17.00
11792;BMP180;5953;52.372;9.918;2023-03-23T08:25:23;99490.00;;;17.30
11792;BMP180;5953;52.372;9.918;2023-03-23T08:27:53;99533.00;;;17.20
11792;BMP180;5953;52.372;9.918;2023-03-23T08:30:21;99529.00;;;17.00
11792;BMP180;5953;52.372;9.918;2023-03-23T08:32:49;99525.00;;;16.60
11792;BMP180;5953;52.372;9.918;2023-03-23T08:35:18;99540.00;;;17.00
11792;BMP180;5953;52.372;9.918;2023-03-23T08:37:45;99531.00;;;17.10
11792;BMP180;5953;52.372;9.918;2023-03-23T08:40:17;99527.00;;;17.20
11792;BMP180;5953;52.372;9.918;2023-03-23T08:42:45;99550.00;;;16.90
11792;BMP180;5953;52.372;9.918;2023-03-23T08:45:15;99524.00;;;17.10
11792;BMP180;5953;52.372;9.918;2023-03-23T08:47:44;99535.00;;;17.30
11792;BMP180;5953;52.372;9.918;2023-03-23T08:50:14;99541.00;;;17.10
11792;BMP180;5953;52.372;9.918;2023-03-23T08:52:41;99536.00;;;17.20
11792;BMP180;5953;52.372;9.918;2023-03-23T08:55:09;99545.00;;;17.10
11792;BMP180;5953;52.372;9.918;2023-03-23T08:57:36;99561.00;;;17.20
11792;BMP180;5953;52.372;9.918;2023-03-23T09:00:05;99545.00;;;17.20
11792;BMP180;5953;52.372;9.918;2023-03-23T09:02:41;99555.00;;;17.20
11792;BMP180;5953;52.372;9.918;2023-03-23T09:05:08;99552.00;;;17.40
11792;BMP180;5953;52.372;9.918;2023-03-23T09:07:37;99555.00;;;17.30
11792;BMP180;5953;52.372;9.918;2023-03-23T09:10:05;99551.00;;;17.20
11792;BMP180;5953;52.372;9.918;2023-03-23T09:12:32;99572.00;;;17.40
11792;BMP180;5953;52.372;9.918;2023-03-23T09:14:59;99565.00;;;17.40
11792;BMP180;5953;52.372;9.918;2023-03-23T09:17:28;99562.00;;;17.40
11792;BMP180;5953;52.372;9.918;2023-03-23T09:19:56;99569.00;;;17.60
11792;BMP180;5953;52.372;9.918;2023-03-23T09:22:25;99556.00;;;17.70
11792;BMP180;5953;52.372;9.918;2023-03-23T09:24:51;99555.00;;;17.60
11792;BMP180;5953;52.372;9.918;2023-03-23T09:27:18;99570.00;;;17.50
11792;BMP180;5953;52.372;9.918;2023-03-23T09:29:45;99580.00;;;17.60
11792;BMP180;5953;52.372;9.918;2023-03-23T09:32:15;99575.00;;;17.50
11792;BMP180;5953;52.372;9.918;2023-03-23T09:34:41;99573.00;;;17.50
11792;BMP180;5953;52.372;9.918;2023-03-23T09:37:10;99582.00;;;17.60
11792;BMP180;5953;52.372;9.918;2023-03-23T09:39:38;99583.00;;;17.40
11792;BMP180;5953;52.372;9.918;2023-03-23T09:42:18;99594.00;;;17.50
11792;BMP180;5953;52.372;9.918;2023-03-23T09:44:56;99583.00;;;17.70
11792;BMP180;5953;52.372;9.918;2023-03-23T09:47:31;99585.00;;;17.70
11792;BMP180;5953;52.372;9.918;2023-03-23T09:50:03;99590.00;;;17.70
11792;BMP180;5953;52.372;9.918;2023-03-23T09:52:37;99593.00;;;17.70
11792;BMP180;5953;52.372;9.918;2023-03-23T09:55:07;99604.00;;;17.70
11792;BMP180;5953;52.372;9.918;2023-03-23T09:57:38;99598.00;;;17.90
11792;BMP180;5953;52.372;9.918;2023-03-23T10:00:11;99597.00;;;17.90
11792;BMP180;5953;52.372;9.918;2023-03-23T10:02:46;99608.00;;;17.70
11792;BMP180;5953;52.372;9.918;2023-03-23T10:05:26;99596.00;;;17.90
11792;BMP180;5953;52.372;9.918;2023-03-23T10:07:55;99601.00;;;17.50
11792;BMP180;5953;52.372;9.918;2023-03-23T10:10:26;99617.00;;;17.70
11792;BMP180;5953;52.372;9.918;2023-03-23T10:13:01;99615.00;;;17.70
11792;BMP180;5953;52.372;9.918;2023-03-23T10:15:31;99620.00;;;17.60
11792;BMP180;5953;52.372;9.918;2023-03-23T10:18:00;99622.00;;;17.40
11792;BMP180;5953;52.372;9.918;2023-03-23T10:20:42;99622.00;;;17.60
11792;BMP180;5953;52.372;9.918;2023-03-23T10:23:24;99640.00;;;17.80
11792;BMP180;5953;52.372;9.918;2023-03-23T10:26:02;99634.00;;;17.70
11792;BMP180;5953;52.372;9.918;2023-03-23T10:28:36;99630.00;;;17.90
11792;BMP180;5953;52.372;9.918;2023-03-23T10:31:08;99636.00;;;17.90
11792;BMP180;5953;52.372;9.918;2023-03-23T10:33:39;99635.00;;;17.90
11792;BMP180;5953;52.372;9.918;2023-03-23T10:36:13;99635.00;;;17.70
11792;BMP180;5953;52.372;9.918;2023-03-23T10:38:45;99627.00;;;17.50
11792;BMP180;5953;52.372;9.918;2023-03-23T10:41:15;99626.00;;;17.80
11792;BMP180;5953;52.372;9.918;2023-03-23T10:43:44;99624.00;;;18.00
11792;BMP180;5953;52.372;9.918;2023-03-23T10:46:25;99620.00;;;17.80
11792;BMP180;5953;52.372;9.918;2023-03-23T10:48:54;99634.00;;;18.00
11792;BMP180;5953;52.372;9.918;2023-03-23T10:51:27;99633.00;;;18.00
11792;BMP180;5953;52.372;9.918;2023-03-23T10:53:58;99633.00;;;18.00
11792;BMP180;5953;52.372;9.918;2023-03-23T10:56:28;99641.00;;;18.00
11792;BMP180;5953;52.372;9.918;2023-03-23T10:58:55;99626.00;;;17.90
11792;BMP180;5953;52.372;9.918;2023-03-23T11:01:30;99636.00;;;18.10
11792;BMP180;5953;52.372;9.918;2023-03-23T11:03:57;99634.00;;;18.00
11792;BMP180;5953;52.372;9.918;2023-03-23T11:06:29;99643.00;;;18.00
11792;BMP180;5953;52.372;9.918;2023-03-23T11:09:01;99625.00;;;18.00
11792;BMP180;5953;52.372;9.918;2023-03-23T11:11:31;99625.00;;;18.40
11792;BMP180;5953;52.372;9.918;2023-03-23T11:13:59;99622.00;;;18.70
11792;BMP180;5953;52.372;9.918;2023-03-23T11:16:29;99618.00;;;18.90
11792;BMP180;5953;52.372;9.918;2023-03-23T11:18:57;99619.00;;;18.50
11792;BMP180;5953;52.372;9.918;2023-03-23T11:21:25;99628.00;;;18.70
11792;BMP180;5953;52.372;9.918;2023-03-23T11:23:54;99621.00;;;18.50
11792;BMP180;5953;52.372;9.918;2023-03-23T11:26:26;99613.00;;;18.80
11792;BMP180;5953;52.372;9.918;2023-03-23T11:28:56;99619.00;;;19.20
11792;BMP180;5953;52.372;9.918;2023-03-23T11:31:26;99614.00;;;19.20
11792;BMP180;5953;52.372;9.918;2023-03-23T11:33:56;99619.00;;;19.00
11792;BMP180;5953;52.372;9.918;2023-03-23T11:36:30;99629.00;;;18.80
11792;BMP180;5953;52.372;9.918;2023-03-23T11:38:57;99624.00;;;18.80
11792;BMP180;5953;52.372;9.918;2023-03-23T11:41:31;99633.00;;;18.80
11792;BMP180;5953;52.372;9.918;2023-03-23T11:44:04;99628.00;;;19.10
11792;BMP180;5953;52.372;9.918;2023-03-23T11:46:42;99628.00;;;18.80
11792;BMP180;5953;52.372;9.918;2023-03-23T11:49:18;99632.00;;;19.00
11792;BMP180;5953;52.372;9.918;2023-03-23T11:51:49;99620.00;;;19.10
11792;BMP180;5953;52.372;9.918;2023-03-23T11:54:21;99638.00;;;18.90
11792;BMP180;5953;52.372;9.918;2023-03-23T11:56:53;99617.00;;;18.70
11792;BMP180;5953;52.372;9.918;2023-03-23T11:59:27;99622.00;;;18.80
11792;BMP180;5953;52.372;9.918;2023-03-23T12:01:58;99614.00;;;19.20
11792;BMP180;5953;52.372;9.918;2023-03-23T12:04:44;99623.00;;;19.00
11792;BMP180;5953;52.372;9.918;2023-03-23T12:07:30;99618.00;;;19.40
11792;BMP180;5953;52.372;9.918;2023-03-23T12:10:06;99617.00;;;19.00
11792;BMP180;5953;52.372;9.918;2023-03-23T12:12:42;99602.00;;;19.10
11792;BMP180;5953;52.372;9.918;2023-03-23T12:15:19;99610.00;;;19.30
11792;BMP180;5953;52.372;9.918;2023-03-23T12:17:55;99622.00;;;19.10
11792;BMP180;5953;52.372;9.918;2023-03-23T12:20:32;99634.00;;;18.80
11792;BMP180;5953;52.372;9.918;2023-03-23T12:23:11;99673.00;;;18.70
11792;BMP180;5953;52.372;9.918;2023-03-23T12:26:05;99680.00;;;18.30
11792;BMP180;5953;52.372;9.918;2023-03-23T12:28:49;99697.00;;;18.00
11792;BMP180;5953;52.372;9.918;2023-03-23T12:31:21;99701.00;;;17.90
11792;BMP180;5953;52.372;9.918;2023-03-23T12:33:54;99689.00;;;17.50
11792;BMP180;5953;52.372;9.918;2023-03-23T12:36:30;99690.00;;;17.60
11792;BMP180;5953;52.372;9.918;2023-03-23T12:42:02;99681.00;;;17.50
11792;BMP180;5953;52.372;9.918;2023-03-23T12:44:41;99688.00;;;17.80
11792;BMP180;5953;52.372;9.918;2023-03-23T12:47:21;99693.00;;;17.60
11792;BMP180;5953;52.372;9.918;2023-03-23T12:49:55;99697.00;;;17.60
11792;BMP180;5953;52.372;9.918;2023-03-23T12:52:26;99689.00;;;17.30
11792;BMP180;5953;52.372;9.918;2023-03-23T12:54:58;99702.00;;;17.20
11792;BMP180;5953;52.372;9.918;2023-03-23T12:57:32;99700.00;;;17.20
11792;BMP180;5953;52.372;9.918;2023-03-23T13:00:06;99694.00;;;16.90
11792;BMP180;5953;52.372;9.918;2023-03-23T13:02:41;99697.00;;;16.80
11792;BMP180;5953;52.372;9.918;2023-03-23T13:05:11;99706.00;;;16.70
11792;BMP180;5953;52.372;9.918;2023-03-23T13:07:44;99702.00;;;16.40
11792;BMP180;5953;52.372;9.918;2023-03-23T13:10:21;99699.00;;;16.40
11792;BMP180;5953;52.372;9.918;2023-03-23T13:12:51;99711.00;;;16.40
11792;BMP180;5953;52.372;9.918;2023-03-23T13:15:29;99711.00;;;16.40
11792;BMP180;5953;52.372;9.918;2023-03-23T13:18:04;99710.00;;;16.40
11792;BMP180;5953;52.372;9.918;2023-03-23T13:20:42;99708.00;;;16.40
11792;BMP180;5953;52.372;9.918;2023-03-23T13:23:14;99711.00;;;16.70
11792;BMP180;5953;52.372;9.918;2023-03-23T13:25:51;99715.00;;;16.50
11792;BMP180;5953;52.372;9.918;2023-03-23T13:28:20;99716.00;;;16.70
11792;BMP180;5953;52.372;9.918;2023-03-23T13:30:58;99713.00;;;16.70
11792;BMP180;5953;52.372;9.918;2023-03-23T13:33:25;99705.00;;;16.70
11792;BMP180;5953;52.372;9.918;2023-03-23T13:35:52;99710.00;;;16.70
11792;BMP180;5953;52.372;9.918;2023-03-23T13:38:23;99715.00;;;16.50
11792;BMP180;5953;52.372;9.918;2023-03-23T13:40:52;99703.00;;;16.50
11792;BMP180;5953;52.372;9.918;2023-03-23T13:43:32;99706.00;;;16.60
11792;BMP180;5953;52.372;9.918;2023-03-23T13:46:11;99712.00;;;16.60
11792;BMP180;5953;52.372;9.918;2023-03-23T13:48:46;99725.00;;;16.30
11792;BMP180;5953;52.372;9.918;2023-03-23T13:51:33;99719.00;;;16.50
11792;BMP180;5953;52.372;9.918;2023-03-23T13:54:19;99723.00;;;16.50
11792;BMP180;5953;52.372;9.918;2023-03-23T13:56:54;99734.00;;;16.60
11792;BMP180;5953;52.372;9.918;2023-03-23T13:59:46;99716.00;;;16.50
11792;BMP180;5953;52.372;9.918;2023-03-23T14:02:33;99715.00;;;16.40
11792;BMP180;5953;52.372;9.918;2023-03-23T14:07:53;99706.00;;;16.60
11792;BMP180;5953;52.372;9.918;2023-03-23T14:10:21;99722.00;;;16.60
11792;BMP180;5953;52.372;9.918;2023-03-23T14:12:50;99732.00;;;16.50
11792;BMP180;5953;52.372;9.918;2023-03-23T14:15:19;99714.00;;;16.50
11792;BMP180;5953;52.372;9.918;2023-03-23T14:17:47;99723.00;;;16.30
11792;BMP180;5953;52.372;9.918;2023-03-23T14:20:21;99710.00;;;16.60
11792;BMP180;5953;52.372;9.918;2023-03-23T14:22:53;99718.00;;;16.50
11792;BMP180;5953;52.372;9.918;2023-03-23T14:25:20;99714.00;;;16.30
11792;BMP180;5953;52.372;9.918;2023-03-23T14:27:51;99729.00;;;15.90
11792;BMP180;5953;52.372;9.918;2023-03-23T14:30:20;99714.00;;;16.00
11792;BMP180;5953;52.372;9.918;2023-03-23T14:32:50;99721.00;;;16.10
11792;BMP180;5953;52.372;9.918;2023-03-23T14:35:23;99709.00;;;16.10
11792;BMP180;5953;52.372;9.918;2023-03-23T14:37:50;99716.00;;;15.80
11792;BMP180;5953;52.372;9.918;2023-03-23T14:40:18;99720.00;;;16.00
11792;BMP180;5953;52.372;9.918;2023-03-23T14:42:45;99718.00;;;15.60
11792;BMP180;5953;52.372;9.918;2023-03-23T14:45:16;99724.00;;;15.90
11792;BMP180;5953;52.372;9.918;2023-03-23T14:47:45;99723.00;;;15.80